Accueil
METAR-TAF:

METAR-TAF

Aéroports :

Naval Air Station Whiting Field South

Milton, Floride, États-Unis

latitude: 30-41-50N, longitude: 087-01-12W, altitude: 54 m

Observation

Le bulletin a été fait il y a 2 heures et 14 minutes, à 07:56 UTC
Vent calme
Température 24°C
Humidité 94%
Pression 1017 hPa
Visibilité: 16.1 km
Ciel clair

METAR: KNDZ 210756Z AUTO 00000KT 10SM CLR 24/23 A3003 RMK AO2 SLP155 T02440233 PNO $

Heure: 05:10 (10:10 UTC)


TAF: absent

Observations et prévisions météorologiques de plus de 4000 aéroports (messages METAR et TAF).

Les stations disponibles sont représentées par des disques jaunes et rouges sur la carte.

Passer la souris dessus pour voir le nom de la station.

Cliquer dessus pour voir les observations et prévisions météorologiques.

Pour changer de carte: cliquez sur les boutons verts avec une croix noire pour zoomer, sur le bouton vert avec un tiret pour effectuer un zoom arrière, ou sur les flèches vertes pour les cartes adjacentes.


METAR-TAF: